sensor_id;sensor_type;location;lat;lon;timestamp;temperature;humidity
53645;DHT22;39547;45.554;12.068;2023-10-09T00:05:58;18.70;78.40
53645;DHT22;39547;45.554;12.068;2023-10-09T00:11:59;18.60;78.60
53645;DHT22;39547;45.554;12.068;2023-10-09T00:18:01;18.60;78.60
53645;DHT22;39547;45.554;12.068;2023-10-09T00:24:06;18.60;78.60
53645;DHT22;39547;45.554;12.068;2023-10-09T00:30:16;18.60;78.70
53645;DHT22;39547;45.554;12.068;2023-10-09T00:36:19;18.50;78.70
53645;DHT22;39547;45.554;12.068;2023-10-09T00:42:30;18.50;79.10
53645;DHT22;39547;45.554;12.068;2023-10-09T00:48:34;18.40;79.20
53645;DHT22;39547;45.554;12.068;2023-10-09T00:54:42;18.40;79.10
53645;DHT22;39547;45.554;12.068;2023-10-09T01:00:45;18.40;79.00
53645;DHT22;39547;45.554;12.068;2023-10-09T01:06:47;18.30;78.90
53645;DHT22;39547;45.554;12.068;2023-10-09T01:12:54;18.30;79.20
53645;DHT22;39547;45.554;12.068;2023-10-09T01:18:57;18.20;79.70
53645;DHT22;39547;45.554;12.068;2023-10-09T01:24:58;18.20;79.70
53645;DHT22;39547;45.554;12.068;2023-10-09T01:31:00;18.10;79.50
53645;DHT22;39547;45.554;12.068;2023-10-09T01:37:02;18.10;79.50
53645;DHT22;39547;45.554;12.068;2023-10-09T01:43:06;18.10;79.70
53645;DHT22;39547;45.554;12.068;2023-10-09T01:49:12;18.10;79.40
53645;DHT22;39547;45.554;12.068;2023-10-09T01:55:24;18.00;79.50
53645;DHT22;39547;45.554;12.068;2023-10-09T02:01:41;18.00;79.60
53645;DHT22;39547;45.554;12.068;2023-10-09T02:07:49;18.00;79.80
53645;DHT22;39547;45.554;12.068;2023-10-09T02:13:53;18.00;79.70
53645;DHT22;39547;45.554;12.068;2023-10-09T02:20:02;17.90;80.10
53645;DHT22;39547;45.554;12.068;2023-10-09T02:26:19;17.90;79.90
53645;DHT22;39547;45.554;12.068;2023-10-09T02:32:25;17.80;79.90
53645;DHT22;39547;45.554;12.068;2023-10-09T02:38:29;17.80;79.90
53645;DHT22;39547;45.554;12.068;2023-10-09T02:44:33;17.80;80.10
53645;DHT22;39547;45.554;12.068;2023-10-09T02:50:41;17.80;80.10
53645;DHT22;39547;45.554;12.068;2023-10-09T02:56:49;17.70;80.10
53645;DHT22;39547;45.554;12.068;2023-10-09T03:02:57;17.70;80.10
53645;DHT22;39547;45.554;12.068;2023-10-09T03:09:00;17.70;80.10
53645;DHT22;39547;45.554;12.068;2023-10-09T03:15:03;17.70;80.20
53645;DHT22;39547;45.554;12.068;2023-10-09T03:21:07;17.70;80.10
53645;DHT22;39547;45.554;12.068;2023-10-09T03:27:10;17.70;80.10
53645;DHT22;39547;45.554;12.068;2023-10-09T03:33:13;17.60;80.20
53645;DHT22;39547;45.554;12.068;2023-10-09T03:39:16;17.60;80.30
53645;DHT22;39547;45.554;12.068;2023-10-09T03:45:36;17.60;80.40
53645;DHT22;39547;45.554;12.068;2023-10-09T03:51:40;17.50;80.30
53645;DHT22;39547;45.554;12.068;2023-10-09T03:57:43;17.60;80.30
53645;DHT22;39547;45.554;12.068;2023-10-09T04:03:46;17.50;80.70
53645;DHT22;39547;45.554;12.068;2023-10-09T04:09:48;17.40;81.10
53645;DHT22;39547;45.554;12.068;2023-10-09T04:15:55;17.30;80.80
53645;DHT22;39547;45.554;12.068;2023-10-09T04:21:56;17.30;80.90
53645;DHT22;39547;45.554;12.068;2023-10-09T04:28:00;17.30;81.00
53645;DHT22;39547;45.554;12.068;2023-10-09T04:34:10;17.20;81.00
53645;DHT22;39547;45.554;12.068;2023-10-09T04:40:24;17.20;80.90
53645;DHT22;39547;45.554;12.068;2023-10-09T04:46:48;17.20;80.90
53645;DHT22;39547;45.554;12.068;2023-10-09T04:53:08;17.20;81.20
53645;DHT22;39547;45.554;12.068;2023-10-09T04:59:19;17.00;81.10
53645;DHT22;39547;45.554;12.068;2023-10-09T05:05:28;17.00;81.30
53645;DHT22;39547;45.554;12.068;2023-10-09T05:11:44;16.90;81.40
53645;DHT22;39547;45.554;12.068;2023-10-09T05:17:57;16.90;81.40
53645;DHT22;39547;45.554;12.068;2023-10-09T05:24:04;16.80;81.30
53645;DHT22;39547;45.554;12.068;2023-10-09T05:30:14;16.80;81.30
53645;DHT22;39547;45.554;12.068;2023-10-09T05:36:36;16.80;81.30
53645;DHT22;39547;45.554;12.068;2023-10-09T05:42:38;16.90;81.30
53645;DHT22;39547;45.554;12.068;2023-10-09T05:48:42;16.90;81.50
53645;DHT22;39547;45.554;12.068;2023-10-09T05:54:43;16.90;81.70
53645;DHT22;39547;45.554;12.068;2023-10-09T06:01:03;16.90;81.50
53645;DHT22;39547;45.554;12.068;2023-10-09T06:07:23;17.00;81.60
53645;DHT22;39547;45.554;12.068;2023-10-09T06:13:41;17.00;81.60
53645;DHT22;39547;45.554;12.068;2023-10-09T06:19:47;17.00;81.60
53645;DHT22;39547;45.554;12.068;2023-10-09T06:25:50;17.10;81.50
53645;DHT22;39547;45.554;12.068;2023-10-09T06:31:54;17.20;81.70
53645;DHT22;39547;45.554;12.068;2023-10-09T06:37:59;17.20;82.00
53645;DHT22;39547;45.554;12.068;2023-10-09T06:44:03;17.30;82.30
53645;DHT22;39547;45.554;12.068;2023-10-09T06:50:08;17.30;82.20
53645;DHT22;39547;45.554;12.068;2023-10-09T06:56:26;17.50;82.20
53645;DHT22;39547;45.554;12.068;2023-10-09T07:02:31;17.50;82.10
53645;DHT22;39547;45.554;12.068;2023-10-09T07:08:47;17.70;82.10
53645;DHT22;39547;45.554;12.068;2023-10-09T07:15:01;17.90;81.80
53645;DHT22;39547;45.554;12.068;2023-10-09T07:21:22;18.00;81.80
53645;DHT22;39547;45.554;12.068;2023-10-09T07:27:30;18.20;81.30
53645;DHT22;39547;45.554;12.068;2023-10-09T07:33:47;18.40;80.90
53645;DHT22;39547;45.554;12.068;2023-10-09T07:40:05;18.70;80.70
53645;DHT22;39547;45.554;12.068;2023-10-09T07:52:31;19.20;80.00
53645;DHT22;39547;45.554;12.068;2023-10-09T07:58:32;19.30;79.80
53645;DHT22;39547;45.554;12.068;2023-10-09T08:04:47;19.60;79.50
53645;DHT22;39547;45.554;12.068;2023-10-09T08:10:54;19.80;79.10
53645;DHT22;39547;45.554;12.068;2023-10-09T08:17:14;20.00;78.80
53645;DHT22;39547;45.554;12.068;2023-10-09T08:23:22;20.20;78.50
53645;DHT22;39547;45.554;12.068;2023-10-09T08:29:49;20.30;78.20
53645;DHT22;39547;45.554;12.068;2023-10-09T08:36:12;20.60;77.90
53645;DHT22;39547;45.554;12.068;2023-10-09T08:42:16;20.80;77.60
53645;DHT22;39547;45.554;12.068;2023-10-09T08:48:19;20.90;77.30
53645;DHT22;39547;45.554;12.068;2023-10-09T08:54:22;21.10;77.10
53645;DHT22;39547;45.554;12.068;2023-10-09T09:00:24;21.30;76.80
53645;DHT22;39547;45.554;12.068;2023-10-09T09:06:27;21.50;76.50
53645;DHT22;39547;45.554;12.068;2023-10-09T09:12:38;21.70;76.10
53645;DHT22;39547;45.554;12.068;2023-10-09T09:25:01;22.10;75.50
53645;DHT22;39547;45.554;12.068;2023-10-09T09:31:08;22.20;74.90
53645;DHT22;39547;45.554;12.068;2023-10-09T09:37:25;22.30;74.20
53645;DHT22;39547;45.554;12.068;2023-10-09T09:43:31;22.50;74.10
53645;DHT22;39547;45.554;12.068;2023-10-09T09:49:37;22.80;73.90
53645;DHT22;39547;45.554;12.068;2023-10-09T09:55:52;23.00;73.50
53645;DHT22;39547;45.554;12.068;2023-10-09T10:01:58;23.20;73.00
53645;DHT22;39547;45.554;12.068;2023-10-09T10:08:08;23.40;72.30
53645;DHT22;39547;45.554;12.068;2023-10-09T10:14:14;23.60;72.00
53645;DHT22;39547;45.554;12.068;2023-10-09T10:27:19;23.80;70.60
53645;DHT22;39547;45.554;12.068;2023-10-09T10:39:56;24.20;69.90
53645;DHT22;39547;45.554;12.068;2023-10-09T10:46:02;24.20;69.60
53645;DHT22;39547;45.554;12.068;2023-10-09T10:52:05;24.40;69.60
53645;DHT22;39547;45.554;12.068;2023-10-09T10:58:20;24.60;69.50
53645;DHT22;39547;45.554;12.068;2023-10-09T11:04:37;24.70;68.80
53645;DHT22;39547;45.554;12.068;2023-10-09T11:10:46;24.80;68.60
53645;DHT22;39547;45.554;12.068;2023-10-09T11:16:55;25.00;68.30
53645;DHT22;39547;45.554;12.068;2023-10-09T11:22:59;25.00;67.70
53645;DHT22;39547;45.554;12.068;2023-10-09T11:29:19;25.10;67.10
53645;DHT22;39547;45.554;12.068;2023-10-09T11:35:26;25.20;66.80
53645;DHT22;39547;45.554;12.068;2023-10-09T11:41:39;25.30;65.90
53645;DHT22;39547;45.554;12.068;2023-10-09T11:47:42;25.50;65.80
53645;DHT22;39547;45.554;12.068;2023-10-09T11:53:55;25.70;65.80
53645;DHT22;39547;45.554;12.068;2023-10-09T12:00:03;25.80;65.10
53645;DHT22;39547;45.554;12.068;2023-10-09T12:06:28;26.10;63.80
53645;DHT22;39547;45.554;12.068;2023-10-09T12:12:33;26.20;63.30
53645;DHT22;39547;45.554;12.068;2023-10-09T12:18:36;26.30;63.30
53645;DHT22;39547;45.554;12.068;2023-10-09T12:24:40;26.50;62.80
53645;DHT22;39547;45.554;12.068;2023-10-09T12:30:44;26.70;62.40
53645;DHT22;39547;45.554;12.068;2023-10-09T12:36:51;26.70;62.30
53645;DHT22;39547;45.554;12.068;2023-10-09T12:42:53;26.70;61.00
53645;DHT22;39547;45.554;12.068;2023-10-09T12:48:55;26.70;61.60
53645;DHT22;39547;45.554;12.068;2023-10-09T12:54:56;26.80;61.60
53645;DHT22;39547;45.554;12.068;2023-10-09T13:00:58;26.80;60.00
53645;DHT22;39547;45.554;12.068;2023-10-09T13:07:10;26.70;60.80
53645;DHT22;39547;45.554;12.068;2023-10-09T13:13:14;26.80;61.00
53645;DHT22;39547;45.554;12.068;2023-10-09T13:19:16;26.90;60.30
53645;DHT22;39547;45.554;12.068;2023-10-09T13:25:18;26.80;60.40
53645;DHT22;39547;45.554;12.068;2023-10-09T13:31:26;26.80;60.50
53645;DHT22;39547;45.554;12.068;2023-10-09T13:37:27;26.70;60.80
53645;DHT22;39547;45.554;12.068;2023-10-09T13:43:29;26.70;61.10
53645;DHT22;39547;45.554;12.068;2023-10-09T13:49:31;26.60;61.40
53645;DHT22;39547;45.554;12.068;2023-10-09T13:55:37;26.40;61.80
53645;DHT22;39547;45.554;12.068;2023-10-09T14:01:44;26.30;62.70
53645;DHT22;39547;45.554;12.068;2023-10-09T14:07:49;26.10;63.90
53645;DHT22;39547;45.554;12.068;2023-10-09T14:13:54;25.90;64.90
53645;DHT22;39547;45.554;12.068;2023-10-09T14:19:57;25.70;65.60
53645;DHT22;39547;45.554;12.068;2023-10-09T14:26:17;25.60;66.10
53645;DHT22;39547;45.554;12.068;2023-10-09T14:32:19;25.50;66.50
53645;DHT22;39547;45.554;12.068;2023-10-09T14:38:21;25.30;66.80
53645;DHT22;39547;45.554;12.068;2023-10-09T14:44:29;25.30;67.10
53645;DHT22;39547;45.554;12.068;2023-10-09T14:50:31;25.10;67.50
53645;DHT22;39547;45.554;12.068;2023-10-09T14:56:33;24.80;68.00
53645;DHT22;39547;45.554;12.068;2023-10-09T15:02:34;24.80;68.40
53645;DHT22;39547;45.554;12.068;2023-10-09T15:08:36;24.70;68.70
53645;DHT22;39547;45.554;12.068;2023-10-09T15:14:38;24.50;69.00
53645;DHT22;39547;45.554;12.068;2023-10-09T15:20:40;24.30;69.40
53645;DHT22;39547;45.554;12.068;2023-10-09T15:26:42;24.20;69.60
53645;DHT22;39547;45.554;12.068;2023-10-09T15:32:45;24.20;69.80
53645;DHT22;39547;45.554;12.068;2023-10-09T15:38:47;24.10;70.00
53645;DHT22;39547;45.554;12.068;2023-10-09T15:44:52;24.00;70.20
53645;DHT22;39547;45.554;12.068;2023-10-09T15:50:55;24.00;70.40
53645;DHT22;39547;45.554;12.068;2023-10-09T15:56:58;23.90;70.60
53645;DHT22;39547;45.554;12.068;2023-10-09T16:03:00;23.80;70.80
53645;DHT22;39547;45.554;12.068;2023-10-09T16:09:02;23.60;71.10
53645;DHT22;39547;45.554;12.068;2023-10-09T16:15:04;23.50;71.30
53645;DHT22;39547;45.554;12.068;2023-10-09T16:21:07;23.40;71.50
53645;DHT22;39547;45.554;12.068;2023-10-09T16:27:10;23.30;71.70
53645;DHT22;39547;45.554;12.068;2023-10-09T16:33:12;23.20;71.90
53645;DHT22;39547;45.554;12.068;2023-10-09T16:39:13;23.00;72.10
53645;DHT22;39547;45.554;12.068;2023-10-09T16:45:23;22.90;72.30
53645;DHT22;39547;45.554;12.068;2023-10-09T16:51:27;22.80;72.50
53645;DHT22;39547;45.554;12.068;2023-10-09T16:57:29;22.70;72.80
53645;DHT22;39547;45.554;12.068;2023-10-09T17:03:30;22.50;73.10
53645;DHT22;39547;45.554;12.068;2023-10-09T17:09:32;22.40;73.30
53645;DHT22;39547;45.554;12.068;2023-10-09T17:15:36;22.30;73.50
53645;DHT22;39547;45.554;12.068;2023-10-09T17:21:37;22.20;73.70
53645;DHT22;39547;45.554;12.068;2023-10-09T17:27:39;22.10;73.80
53645;DHT22;39547;45.554;12.068;2023-10-09T17:33:42;22.00;74.00
53645;DHT22;39547;45.554;12.068;2023-10-09T17:39:44;22.00;74.70
53645;DHT22;39547;45.554;12.068;2023-10-09T17:45:47;21.80;74.70
53645;DHT22;39547;45.554;12.068;2023-10-09T17:51:49;21.80;74.80
53645;DHT22;39547;45.554;12.068;2023-10-09T17:57:50;21.70;74.90
53645;DHT22;39547;45.554;12.068;2023-10-09T18:03:52;21.70;75.00
53645;DHT22;39547;45.554;12.068;2023-10-09T18:09:54;21.70;75.30
53645;DHT22;39547;45.554;12.068;2023-10-09T18:16:04;21.70;75.40
53645;DHT22;39547;45.554;12.068;2023-10-09T18:22:09;21.60;75.60
53645;DHT22;39547;45.554;12.068;2023-10-09T18:28:13;21.50;75.90
53645;DHT22;39547;45.554;12.068;2023-10-09T18:34:15;21.40;76.00
53645;DHT22;39547;45.554;12.068;2023-10-09T18:40:16;21.30;76.10
53645;DHT22;39547;45.554;12.068;2023-10-09T18:46:25;21.30;76.20
53645;DHT22;39547;45.554;12.068;2023-10-09T18:52:27;21.20;76.30
53645;DHT22;39547;45.554;12.068;2023-10-09T18:58:29;21.20;77.00
53645;DHT22;39547;45.554;12.068;2023-10-09T19:04:30;21.20;76.80
53645;DHT22;39547;45.554;12.068;2023-10-09T19:10:32;21.20;77.20
53645;DHT22;39547;45.554;12.068;2023-10-09T19:16:34;21.10;77.20
53645;DHT22;39547;45.554;12.068;2023-10-09T19:22:36;21.00;77.30
53645;DHT22;39547;45.554;12.068;2023-10-09T19:28:39;20.90;77.40
53645;DHT22;39547;45.554;12.068;2023-10-09T19:34:40;20.90;77.70
53645;DHT22;39547;45.554;12.068;2023-10-09T19:40:42;20.80;77.60
53645;DHT22;39547;45.554;12.068;2023-10-09T19:46:45;20.90;77.80
53645;DHT22;39547;45.554;12.068;2023-10-09T19:52:47;20.80;78.00
53645;DHT22;39547;45.554;12.068;2023-10-09T19:58:52;20.80;78.40
53645;DHT22;39547;45.554;12.068;2023-10-09T20:04:59;20.70;78.60
53645;DHT22;39547;45.554;12.068;2023-10-09T20:11:10;20.70;78.80
53645;DHT22;39547;45.554;12.068;2023-10-09T20:17:13;20.70;78.70
53645;DHT22;39547;45.554;12.068;2023-10-09T20:23:15;20.60;79.00
53645;DHT22;39547;45.554;12.068;2023-10-09T20:29:17;20.50;78.80
53645;DHT22;39547;45.554;12.068;2023-10-09T20:35:19;20.60;79.10
53645;DHT22;39547;45.554;12.068;2023-10-09T20:41:21;20.50;78.90
53645;DHT22;39547;45.554;12.068;2023-10-09T20:47:24;20.50;79.00
53645;DHT22;39547;45.554;12.068;2023-10-09T20:53:27;20.50;79.10
53645;DHT22;39547;45.554;12.068;2023-10-09T20:59:29;20.50;79.20
53645;DHT22;39547;45.554;12.068;2023-10-09T21:05:32;20.50;79.20
53645;DHT22;39547;45.554;12.068;2023-10-09T21:11:35;20.50;79.30
53645;DHT22;39547;45.554;12.068;2023-10-09T21:17:40;20.40;79.50
53645;DHT22;39547;45.554;12.068;2023-10-09T21:23:43;20.40;79.60
53645;DHT22;39547;45.554;12.068;2023-10-09T21:29:48;20.30;79.70
53645;DHT22;39547;45.554;12.068;2023-10-09T21:35:49;20.30;79.70
53645;DHT22;39547;45.554;12.068;2023-10-09T21:41:51;20.30;79.80
53645;DHT22;39547;45.554;12.068;2023-10-09T21:47:54;20.20;80.00
53645;DHT22;39547;45.554;12.068;2023-10-09T21:53:58;20.20;79.90
53645;DHT22;39547;45.554;12.068;2023-10-09T21:59:59;20.20;79.90
53645;DHT22;39547;45.554;12.068;2023-10-09T22:06:01;20.20;79.80
53645;DHT22;39547;45.554;12.068;2023-10-09T22:12:03;20.20;79.90
53645;DHT22;39547;45.554;12.068;2023-10-09T22:18:05;20.20;80.20
53645;DHT22;39547;45.554;12.068;2023-10-09T22:24:12;20.10;80.20
53645;DHT22;39547;45.554;12.068;2023-10-09T22:30:19;20.10;80.30
53645;DHT22;39547;45.554;12.068;2023-10-09T22:36:29;20.00;80.20
53645;DHT22;39547;45.554;12.068;2023-10-09T22:42:31;20.00;80.20
53645;DHT22;39547;45.554;12.068;2023-10-09T22:48:33;20.00;80.20
53645;DHT22;39547;45.554;12.068;2023-10-09T22:54:42;20.00;80.40
53645;DHT22;39547;45.554;12.068;2023-10-09T23:00:46;19.90;80.20
53645;DHT22;39547;45.554;12.068;2023-10-09T23:06:50;19.90;80.40
53645;DHT22;39547;45.554;12.068;2023-10-09T23:13:03;19.90;80.80
53645;DHT22;39547;45.554;12.068;2023-10-09T23:19:17;19.90;80.40
53645;DHT22;39547;45.554;12.068;2023-10-09T23:25:19;19.80;80.30
53645;DHT22;39547;45.554;12.068;2023-10-09T23:31:36;19.80;80.30
53645;DHT22;39547;45.554;12.068;2023-10-09T23:37:49;19.80;80.20
53645;DHT22;39547;45.554;12.068;2023-10-09T23:44:09;19.80;80.10
53645;DHT22;39547;45.554;12.068;2023-10-09T23:50:10;19.80;80.10
53645;DHT22;39547;45.554;12.068;2023-10-09T23:56:17;19.80;80.10
